Main page
METAR-TAF:

METAR-TAF

Airports :

Tiree, Scotland

Tiree Airport

latitude: 56-30N, longitude: 006-53W, elevation: 12 m

Current weather observation

The report was made 51 minutes ago, at 01:50 UTC
Wind 7 kt from the North
Temperature 13°C
Humidity 100%
Pressure 1018 hPa
Visibility 10 km or more

METAR: EGPU 240150Z AUTO 35007KT 9999 NCD 13/13 Q1018

Time: 03:41 (02:41 UTC)

Forecast

The report was made 12 hours and 42 minutes ago, at 13:59 UTC
Forecast valid from 23 at 15 UTC to 23 at 18 UTC
Wind 12 kt from the North
Visibility 10 km or more
Few clouds at a height of 4000 ft

TAF: EGPU 231359Z 2315/2318 36012KT 9999 FEW040

Weather observations and forecasts of more than 4000 airports (METAR and TAF reports).

The available stations are represented by yellow and red dots on the map.

Hover mouse over dot to see the name of the station.

Then click to see weather observations and forecasts.

To change the map : click on the green buttons with a black cross to zoom in, on the green button with a dash to zoom out, or on the green arrows for adjacent maps.


METAR-TAF: